Time;durP1;ratioP1;P1;durP2;ratioP2;P2;SDS_P1;SDS_P2;PMS_P1;PMS_P2;Temp;Humidity;BMP_temperature;BMP_pressure;BME280_temperature;BME280_humidity;BME280_pressure;Samples;Min_cycle;Max_cycle;Signal;HPM_P1;HPM_P2
2023/08/19 00:05:29;;;;;;;15.00;12.20;;;;;;;20.46;81.02;98830.67;435575;1249;99231;-42
2023/08/19 00:15:36;;;;;;;16.70;12.70;;;;;;;20.38;80.88;98829.32;435334;1253;110589;-42
2023/08/19 00:25:43;;;;;;;16.10;13.40;;;;;;;20.26;81.10;98828.80;435359;1254;97973;-41
2023/08/19 00:35:51;;;;;;;19.50;13.60;;;;;;;20.13;81.03;98825.52;435098;1254;328402;-42
2023/08/19 00:45:58;;;;;;;17.70;15.00;;;;;;;19.96;81.32;98828.52;435159;1254;108152;-42
2023/08/19 00:56:04;;;;;;;20.90;14.10;;;;;;;19.72;81.21;98826.48;435452;1250;99217;-42
2023/08/19 01:06:14;;;;;;;13.40;12.10;;;;;;;19.63;81.48;98826.67;435239;1253;107856;-41
2023/08/19 01:26:29;;;;;;;18.20;14.20;;;;;;;19.16;81.80;98822.62;435320;1254;112745;-41
2023/08/19 01:36:42;;;;;;;17.60;15.10;;;;;;;19.06;81.97;98823.45;435373;1254;108264;-42
2023/08/19 01:46:49;;;;;;;16.90;14.60;;;;;;;18.99;82.53;98822.27;435235;1249;99288;-43
2023/08/19 01:56:56;;;;;;;18.50;15.50;;;;;;;19.06;82.86;98804.63;436113;1253;106915;-42
2023/08/19 02:07:03;;;;;;;17.70;15.00;;;;;;;19.16;83.11;98810.61;435295;1250;99314;-41
2023/08/19 02:17:10;;;;;;;18.20;14.30;;;;;;;19.02;82.77;98811.58;435244;1254;112659;-40
2023/08/19 02:27:18;;;;;;;17.50;15.50;;;;;;;18.89;82.82;98812.73;435184;1249;108166;-41
2023/08/19 02:37:25;;;;;;;19.40;15.40;;;;;;;18.76;83.06;98815.21;435325;1254;99222;-42
2023/08/19 02:47:32;;;;;;;20.60;15.00;;;;;;;18.76;83.11;98814.72;435222;1254;109356;-41
2023/08/19 02:57:40;;;;;;;26.40;16.70;;;;;;;18.57;82.89;98822.15;435254;1254;99241;-41
2023/08/19 03:07:47;;;;;;;21.40;15.70;;;;;;;18.40;83.01;98809.83;435406;1255;112944;-42
2023/08/19 03:17:55;;;;;;;20.40;16.30;;;;;;;18.26;83.56;98801.54;435244;1253;109335;-41
2023/08/19 03:28:02;;;;;;;20.70;15.10;;;;;;;18.39;84.21;98803.77;435307;1254;98817;-43
2023/08/19 03:38:10;;;;;;;18.10;14.90;;;;;;;18.52;84.13;98809.70;435191;1254;111072;-42
2023/08/19 03:48:17;;;;;;;23.50;16.20;;;;;;;18.58;84.37;98822.15;435259;1250;99055;-44
2023/08/19 03:58:24;;;;;;;19.90;15.20;;;;;;;18.66;84.10;98824.41;435119;1255;111845;-42
2023/08/19 04:08:31;;;;;;;17.00;13.90;;;;;;;18.71;84.14;98820.54;435247;1253;107352;-43
2023/08/19 04:18:38;;;;;;;22.20;16.20;;;;;;;18.82;83.90;98821.60;435403;1253;97990;-42
2023/08/19 04:28:46;;;;;;;20.30;15.80;;;;;;;18.95;84.15;98821.06;435276;1255;107859;-42
2023/08/19 04:38:53;;;;;;;18.10;16.20;;;;;;;19.43;84.26;98825.81;435156;1254;99327;-43
2023/08/19 04:49:00;;;;;;;22.80;16.70;;;;;;;20.04;83.70;98836.48;435436;1249;110174;-42
2023/08/19 04:59:07;;;;;;;20.90;18.20;;;;;;;20.54;83.81;98840.31;435088;1255;108452;-42
2023/08/19 05:09:15;;;;;;;20.20;18.10;;;;;;;21.73;83.50;98849.27;435309;1249;99212;-42
2023/08/19 05:19:24;;;;;;;18.40;16.70;;;;;;;22.27;82.95;98849.19;435301;1253;110729;-43
2023/08/19 05:29:31;;;;;;;19.40;17.40;;;;;;;23.09;82.52;98854.46;435262;1253;99276;-44
2023/08/19 05:39:37;;;;;;;;;;;;;;;23.84;81.84;98857.66;435459;1254;111628;-42
2023/08/19 05:49:44;;;;;;;23.80;18.10;;;;;;;24.43;80.92;98847.34;435210;1250;107559;-43
2023/08/19 05:59:51;;;;;;;18.10;16.40;;;;;;;25.28;79.87;98846.06;435203;1266;99227;-41
2023/08/19 06:09:58;;;;;;;22.70;18.40;;;;;;;26.28;78.65;98853.50;435295;1250;109216;-41
2023/08/19 06:20:08;;;;;;;16.60;14.90;;;;;;;27.06;77.26;98865.49;435403;1251;98844;-40
2023/08/19 06:30:16;;;;;;;18.50;14.80;;;;;;;27.49;74.65;98867.52;435303;1255;110857;-42
2023/08/19 06:40:27;;;;;;;16.10;14.30;;;;;;;27.59;72.63;98876.05;435334;1250;108312;-42
2023/08/19 06:50:35;;;;;;;15.00;12.10;;;;;;;27.67;70.83;98879.99;435305;1250;99922;-42
2023/08/19 07:00:44;;;;;;;14.10;12.70;;;;;;;27.98;69.56;98881.51;435291;1250;108861;-42
2023/08/19 07:10:54;;;;;;;12.80;11.60;;;;;;;28.08;68.22;98891.09;435364;1251;99238;-41
2023/08/19 07:21:02;;;;;;;19.00;12.70;;;;;;;28.48;67.27;98899.14;435478;1254;112366;-43
2023/08/19 07:31:12;;;;;;;12.80;10.40;;;;;;;29.07;66.78;98906.33;435238;1251;108698;-42
2023/08/19 07:41:20;;;;;;;11.40;10.30;;;;;;;29.58;65.05;98917.77;435285;1249;99221;-42
2023/08/19 07:51:28;;;;;;;12.10;10.20;;;;;;;29.75;63.61;98915.56;435309;1255;109460;-43
2023/08/19 08:01:35;;;;;;;10.10;8.90;;;;;;;30.12;62.48;98913.64;435326;1249;99279;-42
2023/08/19 08:11:45;;;;;;;11.50;8.80;;;;;;;29.94;61.42;98916.78;435558;1264;112263;-43
2023/08/19 08:21:53;;;;;;;9.50;8.60;;;;;;;30.32;60.70;98925.75;435426;1255;108902;-42
2023/08/19 08:32:00;;;;;;;9.80;8.80;;;;;;;30.45;59.25;98928.87;435337;1255;99352;-42
2023/08/19 08:42:09;;;;;;;9.80;8.00;;;;;;;30.80;58.66;98931.70;435243;1255;99973;-43
2023/08/19 08:52:18;;;;;;;11.10;9.80;;;;;;;30.87;58.08;98932.11;435211;1255;99260;-42
2023/08/19 09:02:26;;;;;;;10.50;9.00;;;;;;;30.91;57.65;98944.08;435186;1254;112469;-43
2023/08/19 09:12:35;;;;;;;11.30;8.40;;;;;;;30.80;56.36;98940.69;435284;1257;99896;-43
2023/08/19 09:22:43;;;;;;;11.60;8.20;;;;;;;30.54;55.99;98940.73;435221;1255;99340;-45
2023/08/19 09:32:58;;;;;;;8.10;7.20;;;;;;;30.79;55.78;98938.33;435215;1255;100151;-42
2023/08/19 09:43:05;;;;;;;8.30;7.50;;;;;;;30.89;54.75;98935.27;435262;1252;99221;-42
2023/08/19 09:53:17;;;;;;;8.60;7.50;;;;;;;31.23;54.44;98938.59;435289;1264;103480;-43
2023/08/19 10:03:25;;;;;;;7.90;6.70;;;;;;;31.41;53.40;98937.33;435396;1254;99876;-42
2023/08/19 10:13:35;;;;;;;7.60;6.90;;;;;;;31.26;52.42;98933.34;435209;1255;99251;-43
2023/08/19 10:23:46;;;;;;;8.10;7.40;;;;;;;31.05;51.84;98930.16;435363;1264;100597;-48
2023/08/19 10:33:53;;;;;;;9.50;8.40;;;;;;;30.78;51.74;98928.02;435448;1256;98494;-44
2023/08/19 10:44:02;;;;;;;8.40;7.50;;;;;;;30.79;51.72;98924.84;435342;1255;103512;-44
2023/08/19 10:54:10;;;;;;;10.20;9.30;;;;;;;30.93;50.89;98927.64;435983;1251;99882;-43
2023/08/19 11:04:18;;;;;;;8.90;8.10;;;;;;;31.11;50.70;98918.89;435548;1256;99265;-43
2023/08/19 11:14:26;;;;;;;9.40;8.50;;;;;;;31.23;50.36;98914.77;435677;1255;99506;-43
2023/08/19 11:24:36;;;;;;;11.50;10.10;;;;;;;31.26;50.75;98913.06;435664;1251;99240;-45
2023/08/19 11:34:43;;;;;;;12.30;9.80;;;;;;;31.13;51.24;98909.65;435330;1264;102464;-43
2023/08/19 11:44:51;;;;;;;11.30;8.50;;;;;;;31.49;51.72;98908.82;435258;1264;99593;-43
2023/08/19 11:55:06;;;;;;;10.60;9.50;;;;;;;31.80;51.02;98909.88;435349;1253;99268;-43
2023/08/19 12:05:24;;;;;;;10.60;9.60;;;;;;;31.72;50.31;98911.84;435353;1251;99237;-44
2023/08/19 12:15:31;;;;;;;11.00;9.90;;;;;;;31.15;50.43;98910.86;435086;1251;99240;-42
2023/08/19 12:25:50;;;;;;;10.30;8.90;;;;;;;30.91;51.22;98901.78;435285;1266;103511;-42
2023/08/19 12:35:57;;;;;;;10.10;9.20;;;;;;;31.20;51.15;98892.56;435128;1255;403985;-42
2023/08/19 12:46:23;;;;;;;12.50;9.30;;;;;;;31.33;50.41;98883.70;435228;1253;98517;-44
2023/08/19 12:56:30;;;;;;;16.30;10.00;;;;;;;31.45;49.90;98885.47;435302;1251;100748;-43
2023/08/19 13:06:37;;;;;;;9.90;8.90;;;;;;;31.16;50.13;98886.78;435284;1251;98029;-42
2023/08/19 13:16:44;;;;;;;9.30;8.30;;;;;;;31.21;50.25;98887.67;435288;1251;103489;-42
2023/08/19 13:26:52;;;;;;;10.40;9.40;;;;;;;31.25;49.86;98880.42;435362;1251;99461;-42
2023/08/19 13:36:59;;;;;;;9.70;8.90;;;;;;;31.32;49.81;98877.34;435260;1265;97957;-43
2023/08/19 13:47:06;;;;;;;10.30;9.40;;;;;;;31.49;49.35;98875.47;435414;1254;110635;-43
2023/08/19 13:57:14;;;;;;;10.20;9.20;;;;;;;31.35;49.21;98868.75;435175;1258;99244;-43
2023/08/19 14:07:21;;;;;;;11.00;9.70;;;;;;;31.37;49.24;98864.63;435378;1251;103609;-43
2023/08/19 14:17:28;;;;;;;10.40;9.00;;;;;;;31.39;48.84;98865.63;435173;1254;99835;-43
2023/08/19 14:27:36;;;;;;;9.70;8.70;;;;;;;31.32;49.20;98866.73;435268;1251;99890;-42
2023/08/19 14:37:43;;;;;;;10.70;9.60;;;;;;;31.31;49.20;98866.24;435248;1254;99546;-42
2023/08/19 14:47:50;;;;;;;10.10;9.20;;;;;;;31.25;48.95;98861.05;435351;1264;99237;-43
2023/08/19 14:57:58;;;;;;;11.10;9.70;;;;;;;31.09;48.88;98853.86;435315;1257;103524;-43
2023/08/19 15:08:05;;;;;;;12.40;10.00;;;;;;;30.99;49.17;98853.48;435126;1251;109184;-42
2023/08/19 15:18:14;;;;;;;10.50;9.50;;;;;;;30.79;49.19;98849.17;435414;1251;99228;-42
2023/08/19 15:28:21;;;;;;;10.70;9.40;;;;;;;30.64;49.24;98846.38;435132;1257;107615;-40
2023/08/19 15:38:28;;;;;;;10.80;9.90;;;;;;;30.49;49.19;98836.67;435264;1257;99231;-42
2023/08/19 15:48:35;;;;;;;10.30;9.30;;;;;;;30.26;49.42;98841.90;435302;1251;112284;-43
2023/08/19 15:58:43;;;;;;;9.90;9.00;;;;;;;30.01;49.91;98845.14;435285;1254;108118;-43
2023/08/19 16:08:50;;;;;;;10.80;9.90;;;;;;;29.77;50.18;98854.65;435349;1251;99128;-42
2023/08/19 16:18:57;;;;;;;12.50;11.10;;;;;;;29.60;50.61;98862.55;435251;1254;108499;-43
2023/08/19 16:29:04;;;;;;;10.90;10.00;;;;;;;29.51;50.67;98866.58;435330;1254;98853;-42
2023/08/19 16:39:12;;;;;;;12.10;9.70;;;;;;;29.32;51.02;98870.10;435166;1253;112516;-42
2023/08/19 16:49:19;;;;;;;13.10;11.50;;;;;;;29.15;51.21;98871.20;435270;1251;108069;-42
2023/08/19 16:59:26;;;;;;;14.50;11.90;;;;;;;28.89;51.74;98876.20;435484;1251;99244;-42
2023/08/19 17:09:34;;;;;;;15.90;12.50;;;;;;;28.56;52.52;98870.92;435333;1252;109025;-43
2023/08/19 17:19:41;;;;;;;14.20;12.80;;;;;;;28.27;53.23;98871.19;435347;1252;99310;-43
2023/08/19 17:29:48;;;;;;;14.80;13.40;;;;;;;27.99;54.29;98880.68;435263;1255;112150;-42
2023/08/19 17:39:56;;;;;;;22.10;19.50;;;;;;;27.58;55.42;98886.36;435218;1251;108611;-42
2023/08/19 17:50:04;;;;;;;16.80;13.80;;;;;;;27.13;56.66;98898.48;435368;1250;99312;-43
2023/08/19 18:00:12;;;;;;;17.90;16.20;;;;;;;26.79;57.64;98905.95;435333;1254;109023;-41
2023/08/19 18:10:20;;;;;;;23.90;14.80;;;;;;;26.29;58.74;98907.05;435288;1254;99320;-42
2023/08/19 18:20:27;;;;;;;22.70;15.20;;;;;;;25.91;60.01;98913.41;435300;1252;111066;-43
2023/08/19 18:30:36;;;;;;;21.10;18.50;;;;;;;25.60;60.90;98920.82;435159;1254;109342;-41
2023/08/19 18:40:45;;;;;;;22.70;20.20;;;;;;;25.24;61.70;98936.08;435359;1254;99323;-42
2023/08/19 18:50:52;;;;;;;27.30;24.20;;;;;;;24.92;62.27;98943.51;435301;1255;107921;-42
2023/08/19 19:01:03;;;;;;;25.60;22.80;;;;;;;24.69;63.24;98949.06;435041;1252;99243;-41
2023/08/19 19:11:14;;;;;;;23.00;20.40;;;;;;;24.48;63.99;98938.09;435300;1253;112493;-43
2023/08/19 19:21:22;;;;;;;22.50;17.30;;;;;;;24.24;64.45;98934.89;435362;1258;108247;-42
2023/08/19 19:31:27;;;;;;;;;;;;;;;24.05;65.11;98951.95;435293;1252;98810;-42
2023/08/19 19:41:34;;;;;;;26.10;23.10;;;;;;;23.78;65.49;98949.69;435298;1251;109828;-44
2023/08/19 19:51:42;;;;;;;26.30;22.30;;;;;;;23.64;65.95;98952.09;435235;1251;99215;-42
2023/08/19 20:01:49;;;;;;;28.30;20.90;;;;;;;23.51;66.40;98958.44;435211;1254;112280;-43
2023/08/19 20:11:57;;;;;;;24.10;21.60;;;;;;;23.47;66.86;98966.24;435163;1254;108317;-42
2023/08/19 20:22:02;;;;;;;;;;;;;;;23.22;67.40;98963.85;435263;1254;99237;-42
2023/08/19 20:32:10;;;;;;;34.90;29.60;;;;;;;23.03;68.10;98969.52;435439;1254;109413;-42
2023/08/19 20:42:17;;;;;;;34.90;27.70;;;;;;;22.90;68.47;98968.27;435049;1254;99314;-42
2023/08/19 20:52:24;;;;;;;36.80;31.00;;;;;;;22.85;68.93;98970.08;435322;1251;112987;-42
2023/08/19 21:02:31;;;;;;;34.30;30.00;;;;;;;22.88;69.76;98979.80;435139;1254;108081;-43
2023/08/19 21:12:39;;;;;;;33.10;28.70;;;;;;;23.00;70.14;98977.71;435286;1254;98972;-41
2023/08/19 21:22:45;;;;;;;;;;;;;;;22.95;70.79;98973.95;435251;1251;107685;-43
2023/08/19 21:32:52;;;;;;;36.40;30.60;;;;;;;22.86;71.18;98975.84;435238;1251;99256;-42
2023/08/19 21:42:59;;;;;;;36.60;30.40;;;;;;;22.75;71.76;98977.30;435146;1253;112199;-43
2023/08/19 21:53:07;;;;;;;34.50;30.90;;;;;;;22.74;72.18;98966.19;435152;1253;107382;-44
2023/08/19 22:03:14;;;;;;;37.30;33.30;;;;;;;22.56;72.62;98967.63;435394;1255;99234;-42
2023/08/19 22:13:21;;;;;;;36.10;32.00;;;;;;;22.52;73.28;98962.77;435101;1255;109141;-42
2023/08/19 22:23:29;;;;;;;35.20;31.40;;;;;;;22.44;73.73;98957.30;435215;1256;99320;-42
2023/08/19 22:33:36;;;;;;;34.60;31.00;;;;;;;22.40;74.18;98953.73;435243;1255;112812;-41
2023/08/19 22:43:43;;;;;;;33.20;29.60;;;;;;;22.36;74.52;98953.86;435102;1251;108695;-42
2023/08/19 22:53:50;;;;;;;35.60;31.70;;;;;;;22.29;74.70;98954.91;435183;1254;99234;-42
2023/08/19 23:03:58;;;;;;;38.80;31.80;;;;;;;22.14;75.08;98951.58;435048;1255;108133;-41
2023/08/19 23:14:06;;;;;;;35.10;30.80;;;;;;;21.99;75.26;98960.21;435300;1257;99244;-41
2023/08/19 23:24:13;;;;;;;34.60;29.60;;;;;;;21.86;75.59;98953.05;435310;1255;112862;-41
2023/08/19 23:34:20;;;;;;;32.20;28.90;;;;;;;21.82;75.87;98952.59;435236;1254;106710;-42
2023/08/19 23:44:28;;;;;;;32.40;28.90;;;;;;;21.72;76.12;98951.30;435268;1255;97932;-43
2023/08/19 23:54:36;;;;;;;29.80;26.70;;;;;;;21.65;76.39;98949.59;435127;1255;107333;-43
